Time;durP1;ratioP1;P1;durP2;ratioP2;P2;SDS_P1;SDS_P2;PMS_P1;PMS_P2;Temp;Humidity;BMP_temperature;BMP_pressure;BME280_temperature;BME280_humidity;BME280_pressure;Samples;Min_cycle;Max_cycle;Signal;HPM_P1;HPM_P2
2021/12/29 00:00:34;;;;;;;8.33;5.23;;;6.60;99.90;;;;;;5127626;28;20559;-58
2021/12/29 00:03:02;;;;;;;9.27;4.10;;;6.80;99.90;;;;;;5116497;28;20617;-55
2021/12/29 00:05:29;;;;;;;1.83;1.53;;;6.70;99.90;;;;;;5110043;28;20170;-55
2021/12/29 00:07:55;;;;;;;2.90;1.50;;;6.80;99.90;;;;;;5106592;28;20185;-55
2021/12/29 00:10:21;;;;;;;3.23;1.60;;;6.70;99.90;;;;;;5127578;28;20193;-56
2021/12/29 00:12:51;;;;;;;3.87;1.30;;;6.90;99.90;;;;;;5128730;28;20184;-59
2021/12/29 00:15:18;;;;;;;2.50;1.47;;;6.70;99.90;;;;;;5112949;28;20292;-56
2021/12/29 00:17:45;;;;;;;2.63;1.40;;;6.60;99.90;;;;;;5109323;28;20177;-58
2021/12/29 00:20:17;;;;;;;2.60;1.20;;;6.70;99.90;;;;;;5108495;28;20194;-59
2021/12/29 00:22:43;;;;;;;3.40;1.27;;;6.70;99.90;;;;;;5109044;28;20158;-59
2021/12/29 00:25:09;;;;;;;2.73;1.27;;;6.70;99.90;;;;;;5108641;28;20184;-57
2021/12/29 00:27:35;;;;;;;1.03;0.70;;;5.40;99.90;;;;;;5108095;28;20170;-57
2021/12/29 00:30:01;;;;;;;1.17;0.73;;;6.70;99.90;;;;;;5127607;28;20182;-57
2021/12/29 00:32:27;;;;;;;2.20;1.00;;;6.60;99.90;;;;;;5113026;28;20180;-58
2021/12/29 00:34:53;;;;;;;3.30;0.83;;;7.80;99.90;;;;;;5110348;28;20193;-53
2021/12/29 00:37:19;;;;;;;1.03;0.73;;;6.60;99.90;;;;;;5112702;28;20176;-56
2021/12/29 00:39:44;;;;;;;1.03;0.77;;;6.70;99.90;;;;;;5112899;28;20229;-56
2021/12/29 00:42:10;;;;;;;1.73;1.00;;;7.70;99.90;;;;;;5109779;28;20304;-58
2021/12/29 00:44:35;;;;;;;1.37;0.93;;;6.60;99.90;;;;;;5109033;28;20194;-58
2021/12/29 00:47:01;;;;;;;1.33;0.77;;;8.90;99.90;;;;;;5110421;28;20270;-56
2021/12/29 00:49:32;;;;;;;1.30;0.77;;;6.40;99.90;;;;;;5108768;28;20176;-58
2021/12/29 00:52:00;;;;;;;1.63;0.97;;;6.40;99.90;;;;;;5108444;28;20189;-58
2021/12/29 00:54:25;;;;;;;1.70;1.60;;;6.50;99.90;;;;;;5105347;28;20194;-57
2021/12/29 00:56:51;;;;;;;2.03;1.43;;;6.50;99.90;;;;;;5107869;28;20180;-56
2021/12/29 00:59:19;;;;;;;2.20;2.00;;;6.50;99.90;;;;;;5105884;28;20173;-55
2021/12/29 01:01:45;;;;;;;3.33;3.03;;;6.40;99.90;;;;;;5107331;28;20186;-58
2021/12/29 01:04:11;;;;;;;2.53;2.33;;;6.40;99.90;;;;;;5123340;28;20169;-57
2021/12/29 01:06:37;;;;;;;3.30;2.83;;;6.30;99.90;;;;;;5107935;28;20182;-58
2021/12/29 01:09:03;;;;;;;3.30;3.00;;;7.00;99.90;;;;;;5104180;28;20181;-57
2021/12/29 01:11:28;;;;;;;4.07;3.07;;;8.20;99.90;;;;;;5104895;28;20190;-59
2021/12/29 01:13:54;;;;;;;2.60;2.40;;;6.40;99.90;;;;;;5104269;28;20247;-55
2021/12/29 01:19:13;;;;;;;2.20;2.00;;;6.40;99.90;;;;;;5105333;28;20207;-56
2021/12/29 01:21:42;;;;;;;3.03;2.77;;;6.40;99.90;;;;;;5104718;28;20193;-55
2021/12/29 01:24:09;;;;;;;3.27;2.97;;;7.30;99.90;;;;;;5103599;28;20215;-56
2021/12/29 01:26:35;;;;;;;3.30;2.77;;;6.30;99.90;;;;;;5103913;28;20181;-56
2021/12/29 01:29:01;;;;;;;2.67;2.37;;;6.20;99.90;;;;;;5104017;28;20174;-60
2021/12/29 01:31:26;;;;;;;2.30;2.10;;;6.20;99.90;;;;;;5105173;28;20527;-54
2021/12/29 01:33:52;;;;;;;2.40;2.20;;;6.30;99.90;;;;;;5106144;28;20234;-57
2021/12/29 01:36:17;;;;;;;3.10;2.80;;;6.40;99.90;;;;;;5105377;28;20174;-59
2021/12/29 01:38:43;;;;;;;3.20;2.60;;;6.50;99.90;;;;;;5105663;28;20199;-55
2021/12/29 01:41:09;;;;;;;2.67;1.90;;;6.50;99.90;;;;;;5102068;28;20255;-59
2021/12/29 01:43:34;;;;;;;1.77;1.60;;;7.00;99.90;;;;;;5105492;28;20196;-58
2021/12/29 01:46:00;;;;;;;1.70;1.43;;;8.50;99.90;;;;;;5103507;28;20209;-60
2021/12/29 01:48:26;;;;;;;2.73;1.80;;;8.50;99.90;;;;;;5105693;28;20184;-58
2021/12/29 01:50:52;;;;;;;1.60;1.43;;;6.40;99.90;;;;;;5107217;28;20200;-59
2021/12/29 01:53:25;;;;;;;2.50;2.03;;;7.60;99.90;;;;;;5104230;28;20184;-58
2021/12/29 01:55:52;;;;;;;1.97;1.80;;;6.10;99.90;;;;;;5105659;28;20202;-57
2021/12/29 01:58:19;;;;;;;2.93;2.20;;;8.00;99.90;;;;;;5106017;28;20407;-59
2021/12/29 02:00:45;;;;;;;2.37;2.17;;;6.00;99.90;;;;;;5106933;28;20178;-58
2021/12/29 02:03:11;;;;;;;2.93;2.40;;;7.80;99.90;;;;;;5107133;28;20713;-54
2021/12/29 02:05:38;;;;;;;2.93;2.70;;;6.50;99.90;;;;;;5106475;28;20177;-59
2021/12/29 02:08:05;;;;;;;3.20;2.73;;;5.90;99.90;;;;;;5104125;28;20165;-59
2021/12/29 02:10:36;;;;;;;4.20;2.77;;;5.80;99.90;;;;;;5110589;28;20189;-58
2021/12/29 02:13:02;;;;;;;3.50;3.13;;;7.30;99.90;;;;;;5116953;28;20217;-59
2021/12/29 02:15:28;;;;;;;3.57;3.10;;;5.80;99.90;;;;;;5109393;28;20269;-59
2021/12/29 02:17:54;;;;;;;3.73;3.00;;;5.80;99.90;;;;;;5111504;28;20170;-59
2021/12/29 02:20:21;;;;;;;4.30;3.27;;;5.90;99.90;;;;;;5108975;28;20190;-53
2021/12/29 02:22:52;;;;;;;4.80;2.83;;;6.00;99.90;;;;;;5108685;28;20184;-54
2021/12/29 02:27:47;;;;;;;3.63;3.33;;;6.20;99.90;;;;;;5108389;28;20199;-55
2021/12/29 02:30:14;;;;;;;3.70;3.30;;;6.40;99.90;;;;;;5107129;28;20189;-55
2021/12/29 02:32:41;;;;;;;3.63;2.90;;;6.30;99.90;;;;;;5106806;28;20182;-57
2021/12/29 02:35:08;;;;;;;4.47;3.00;;;4.70;99.90;;;;;;5106537;28;20197;-57
2021/12/29 02:37:33;;;;;;;5.10;3.47;;;6.30;99.90;;;;;;5106770;28;20166;-53
2021/12/29 02:39:59;;;;;;;5.07;3.73;;;6.10;99.90;;;;;;5106695;28;20192;-57
2021/12/29 02:42:28;;;;;;;6.17;3.50;;;6.10;99.90;;;;;;5105510;28;20174;-56
2021/12/29 02:44:54;;;;;;;5.20;3.37;;;6.20;99.90;;;;;;5106450;28;20166;-54
2021/12/29 02:47:20;;;;;;;3.67;3.20;;;6.40;99.90;;;;;;5105882;28;20198;-56
2021/12/29 02:49:47;;;;;;;4.10;3.30;;;6.40;99.90;;;;;;5106775;28;20670;-55
2021/12/29 02:52:14;;;;;;;3.13;2.83;;;7.00;99.90;;;;;;5104794;28;20190;-55
2021/12/29 02:54:40;;;;;;;4.43;3.00;;;6.30;99.90;;;;;;5105455;28;20189;-58
2021/12/29 02:57:06;;;;;;;4.33;2.97;;;8.20;99.90;;;;;;5104554;28;20162;-54
2021/12/29 02:59:32;;;;;;;2.47;2.27;;;6.60;99.90;;;;;;5105641;28;20208;-57
2021/12/29 03:01:58;;;;;;;3.00;2.43;;;6.70;99.90;;;;;;5103760;28;20201;-57
2021/12/29 03:04:24;;;;;;;2.90;2.67;;;6.70;99.90;;;;;;5102867;28;20177;-54
2021/12/29 03:06:49;;;;;;;3.93;2.70;;;6.70;99.90;;;;;;5103315;28;20204;-54
2021/12/29 03:09:16;;;;;;;5.53;3.03;;;6.80;99.90;;;;;;5103637;28;20188;-52
2021/12/29 03:11:42;;;;;;;4.47;2.70;;;6.90;99.90;;;;;;5102408;28;20208;-55
2021/12/29 03:14:09;;;;;;;3.43;2.70;;;7.00;99.90;;;;;;5103307;28;20174;-57
2021/12/29 03:16:36;;;;;;;3.60;2.50;;;7.20;99.90;;;;;;5103470;28;20170;-53
2021/12/29 03:19:04;;;;;;;5.43;2.60;;;7.40;99.90;;;;;;5103269;28;20181;-53
2021/12/29 03:21:31;;;;;;;5.77;2.20;;;7.40;99.90;;;;;;5101797;28;20189;-55
2021/12/29 03:23:57;;;;;;;3.80;2.30;;;7.30;99.90;;;;;;5102062;28;20173;-54
2021/12/29 03:26:23;;;;;;;3.47;2.33;;;7.20;99.90;;;;;;5102401;28;20210;-54
2021/12/29 03:28:49;;;;;;;3.50;2.30;;;7.20;99.90;;;;;;5104019;28;20182;-57
2021/12/29 03:31:17;;;;;;;3.87;2.20;;;7.20;99.90;;;;;;5104047;28;20197;-54
2021/12/29 03:33:45;;;;;;;4.17;2.10;;;7.20;99.90;;;;;;5104618;28;20226;-54
2021/12/29 03:36:12;;;;;;;5.23;1.80;;;7.30;99.90;;;;;;5103320;28;20260;-52
2021/12/29 03:38:40;;;;;;;4.13;1.70;;;7.30;99.90;;;;;;5102830;28;20170;-52
2021/12/29 03:41:09;;;;;;;4.93;1.90;;;7.30;99.90;;;;;;5103712;28;20212;-55
2021/12/29 03:43:36;;;;;;;5.00;1.90;;;7.40;99.90;;;;;;5102523;28;20177;-57
2021/12/29 03:46:04;;;;;;;3.97;1.83;;;7.30;99.90;;;;;;5102412;28;20190;-56
2021/12/29 03:48:30;;;;;;;4.00;1.87;;;8.20;99.90;;;;;;5102886;28;20170;-52
2021/12/29 03:50:57;;;;;;;6.50;2.30;;;7.00;99.90;;;;;;5103361;28;20189;-54
2021/12/29 03:53:23;;;;;;;5.87;1.77;;;6.90;99.90;;;;;;5104687;28;20197;-57
2021/12/29 03:55:50;;;;;;;5.90;1.93;;;6.90;99.90;;;;;;5101244;28;20181;-53
2021/12/29 03:58:18;;;;;;;5.33;1.80;;;7.40;99.90;;;;;;5103496;28;20193;-56
2021/12/29 04:00:44;;;;;;;5.40;2.10;;;6.70;99.90;;;;;;5101668;28;20756;-54
2021/12/29 04:03:10;;;;;;;5.00;1.90;;;6.70;99.90;;;;;;5103352;28;20181;-54
2021/12/29 04:05:35;;;;;;;5.77;2.40;;;6.70;99.90;;;;;;5102406;28;20174;-52
2021/12/29 04:08:02;;;;;;;4.77;1.90;;;6.70;99.90;;;;;;5100566;28;20177;-56
2021/12/29 04:10:28;;;;;;;6.90;2.00;;;6.70;99.90;;;;;;5101637;28;20196;-52
2021/12/29 04:12:53;;;;;;;4.30;2.00;;;6.70;99.90;;;;;;5104245;28;20173;-52
2021/12/29 04:15:19;;;;;;;6.57;2.40;;;6.70;99.90;;;;;;5102864;28;20201;-54
2021/12/29 04:17:46;;;;;;;4.33;1.90;;;6.90;99.90;;;;;;5099647;28;20223;-57
2021/12/29 04:23:07;;;;;;;5.87;1.90;;;6.60;99.90;;;;;;5104463;28;20188;-56
2021/12/29 04:25:36;;;;;;;7.33;2.43;;;6.60;99.90;;;;;;5103766;28;20173;-56
2021/12/29 04:28:07;;;;;;;4.83;1.93;;;6.70;99.90;;;;;;5113354;28;20176;-56
2021/12/29 04:30:33;;;;;;;5.00;2.10;;;6.70;99.90;;;;;;5115472;28;20192;-57
2021/12/29 04:32:58;;;;;;;5.40;2.03;;;6.70;99.90;;;;;;5104393;28;20260;-58
2021/12/29 04:35:24;;;;;;;5.57;1.80;;;6.60;99.90;;;;;;5101495;28;20259;-57
2021/12/29 04:37:51;;;;;;;3.63;1.90;;;8.80;99.90;;;;;;5103012;28;20242;-55
2021/12/29 04:40:17;;;;;;;3.90;1.80;;;6.60;99.90;;;;;;5102052;28;20623;-53
2021/12/29 04:42:43;;;;;;;4.20;1.63;;;6.60;99.90;;;;;;5102546;28;20178;-57
2021/12/29 04:45:09;;;;;;;6.93;2.13;;;8.00;99.90;;;;;;5102813;28;20174;-56
2021/12/29 04:47:39;;;;;;;7.90;2.17;;;8.50;99.90;;;;;;5103724;28;20185;-54
2021/12/29 04:50:13;;;;;;;6.20;1.90;;;6.50;99.90;;;;;;5102996;28;20227;-57
2021/12/29 04:52:39;;;;;;;5.50;2.10;;;6.60;99.90;;;;;;5102629;28;20241;-51
2021/12/29 04:55:07;;;;;;;6.03;2.50;;;6.60;99.90;;;;;;5102048;28;20228;-54
2021/12/29 04:57:33;;;;;;;7.87;2.30;;;6.60;99.90;;;;;;5100869;28;20775;-56
2021/12/29 04:59:58;;;;;;;6.90;2.20;;;6.60;99.90;;;;;;5099337;28;20206;-55
2021/12/29 05:02:24;;;;;;;5.17;1.90;;;6.60;99.90;;;;;;5098000;28;20193;-56
2021/12/29 05:04:58;;;;;;;6.40;1.90;;;6.70;99.90;;;;;;5097478;28;20174;-57
2021/12/29 05:10:08;;;;;;;7.30;2.20;;;8.70;99.90;;;;;;5099696;28;20180;-55
2021/12/29 05:12:34;;;;;;;5.83;2.00;;;6.70;99.90;;;;;;5101065;28;20189;-54
2021/12/29 05:15:00;;;;;;;6.93;2.03;;;6.70;99.90;;;;;;5100104;28;20249;-58
2021/12/29 05:17:25;;;;;;;9.80;2.40;;;6.70;99.90;;;;;;5101470;28;20173;-52
2021/12/29 05:19:51;;;;;;;6.20;1.90;;;6.70;99.90;;;;;;5101591;28;20176;-54
2021/12/29 05:22:16;;;;;;;4.97;2.20;;;8.80;99.90;;;;;;5104293;28;20170;-52
2021/12/29 05:24:42;;;;;;;5.50;1.77;;;6.70;99.90;;;;;;5104528;28;20182;-57
2021/12/29 05:27:08;;;;;;;5.77;1.60;;;7.20;99.90;;;;;;5103562;28;20178;-59
2021/12/29 05:29:34;;;;;;;4.80;1.90;;;6.80;99.90;;;;;;5103031;28;20200;-55
2021/12/29 05:31:59;;;;;;;6.03;1.80;;;6.80;99.90;;;;;;5100393;28;20198;-57
2021/12/29 05:34:25;;;;;;;5.30;1.73;;;6.80;99.90;;;;;;5100774;28;20233;-53
2021/12/29 05:36:50;;;;;;;3.77;1.57;;;6.80;99.90;;;;;;5100424;28;20174;-58
2021/12/29 05:39:16;;;;;;;4.93;2.13;;;6.90;99.90;;;;;;5102792;28;20174;-57
2021/12/29 05:41:43;;;;;;;3.03;1.30;;;7.60;99.90;;;;;;5101404;28;20205;-54
2021/12/29 05:44:08;;;;;;;6.30;1.90;;;6.90;99.90;;;;;;5101979;28;20223;-54
2021/12/29 05:46:34;;;;;;;4.30;1.70;;;6.80;99.90;;;;;;5100549;28;20572;-57
2021/12/29 05:49:00;;;;;;;3.63;1.30;;;6.80;99.90;;;;;;5103242;28;20166;-52
2021/12/29 05:51:26;;;;;;;3.40;1.60;;;7.50;99.90;;;;;;5101731;28;20181;-55
2021/12/29 05:53:51;;;;;;;3.53;1.40;;;6.90;99.90;;;;;;5102517;28;20181;-56
2021/12/29 05:56:17;;;;;;;6.27;1.93;;;8.60;99.90;;;;;;5102438;28;20274;-57
2021/12/29 05:58:44;;;;;;;6.87;1.73;;;6.90;99.90;;;;;;5103801;28;20174;-57
2021/12/29 06:01:10;;;;;;;5.43;1.80;;;6.90;99.90;;;;;;5102958;28;20572;-55
2021/12/29 06:03:37;;;;;;;4.13;1.70;;;7.00;99.90;;;;;;5101852;28;20162;-55
2021/12/29 06:06:03;;;;;;;2.53;1.43;;;7.00;99.90;;;;;;5101154;28;20197;-53
2021/12/29 06:08:29;;;;;;;5.03;1.60;;;7.00;99.90;;;;;;5102388;28;20645;-56
2021/12/29 06:10:55;;;;;;;3.50;1.70;;;7.40;99.90;;;;;;5103362;28;20204;-56
2021/12/29 06:13:21;;;;;;;3.37;1.40;;;7.00;99.90;;;;;;5102749;28;20170;-55
2021/12/29 06:15:47;;;;;;;6.67;1.77;;;7.10;99.90;;;;;;5101990;28;20193;-56
2021/12/29 06:18:13;;;;;;;4.07;1.47;;;7.00;99.90;;;;;;5102876;28;20174;-55
2021/12/29 06:20:38;;;;;;;3.70;1.40;;;7.00;99.90;;;;;;5103666;28;20185;-53
2021/12/29 06:23:06;;;;;;;4.70;1.47;;;8.40;99.90;;;;;;5103358;28;20534;-56
2021/12/29 06:25:33;;;;;;;3.97;1.47;;;7.10;99.90;;;;;;5102908;28;20180;-56
2021/12/29 06:27:58;;;;;;;3.90;1.40;;;7.10;99.90;;;;;;5104007;28;20200;-55
2021/12/29 06:30:24;;;;;;;3.20;1.30;;;5.10;99.90;;;;;;5101177;28;20197;-56
2021/12/29 06:32:49;;;;;;;4.20;1.33;;;6.90;99.90;;;;;;5103867;28;20184;-58
2021/12/29 06:35:15;;;;;;;2.73;1.10;;;7.10;99.90;;;;;;5105202;28;20206;-57
2021/12/29 06:37:42;;;;;;;3.97;1.40;;;7.10;99.90;;;;;;5106767;28;20181;-54
2021/12/29 06:40:09;;;;;;;4.83;1.70;;;7.10;99.90;;;;;;5105203;28;20166;-55
2021/12/29 06:42:35;;;;;;;3.70;1.63;;;7.20;99.90;;;;;;5105676;28;20273;-57
2021/12/29 06:45:01;;;;;;;3.40;1.47;;;8.60;99.90;;;;;;5114729;28;20650;-57
2021/12/29 06:47:27;;;;;;;4.40;1.27;;;7.10;99.90;;;;;;5120849;28;20288;-54
2021/12/29 06:49:53;;;;;;;3.27;1.17;;;9.00;99.90;;;;;;5122396;28;20173;-56
2021/12/29 06:52:19;;;;;;;5.33;1.30;;;7.10;99.90;;;;;;5104511;28;20267;-57
2021/12/29 06:54:46;;;;;;;2.77;1.20;;;7.10;99.90;;;;;;5123337;28;20208;-53
2021/12/29 06:57:12;;;;;;;2.63;0.93;;;7.20;99.90;;;;;;5123043;28;20176;-56
2021/12/29 06:59:38;;;;;;;5.13;1.23;;;7.10;99.90;;;;;;5110804;28;20201;-55
2021/12/29 07:02:04;;;;;;;2.30;1.20;;;7.00;99.90;;;;;;5099749;28;20202;-57
2021/12/29 07:04:30;;;;;;;5.13;1.17;;;7.00;99.90;;;;;;5119793;28;20177;-60
2021/12/29 07:06:56;;;;;;;2.57;1.30;;;7.00;99.90;;;;;;5114335;28;20554;-58
2021/12/29 07:09:21;;;;;;;3.37;1.27;;;7.00;99.90;;;;;;5120067;28;20641;-58
2021/12/29 07:11:47;;;;;;;4.00;1.50;;;7.00;99.90;;;;;;5125215;28;20212;-59
2021/12/29 07:14:13;;;;;;;4.77;1.60;;;7.00;99.90;;;;;;5124068;28;20277;-55
2021/12/29 07:16:39;;;;;;;5.27;1.40;;;7.00;99.90;;;;;;5125146;28;20177;-57
2021/12/29 07:19:06;;;;;;;3.93;1.43;;;6.90;99.90;;;;;;5120624;28;20263;-56
2021/12/29 07:21:31;;;;;;;4.67;1.90;;;7.00;99.90;;;;;;5115268;28;20245;-56
2021/12/29 07:23:58;;;;;;;3.30;1.53;;;7.00;99.90;;;;;;5114522;28;20203;-57
2021/12/29 07:26:25;;;;;;;3.00;1.13;;;7.10;99.90;;;;;;5119699;28;20166;-59
2021/12/29 07:28:51;;;;;;;2.23;1.30;;;8.20;99.90;;;;;;5103997;28;20162;-57
2021/12/29 07:31:19;;;;;;;2.23;1.27;;;7.00;99.90;;;;;;5106061;28;20204;-59
2021/12/29 07:33:45;;;;;;;3.53;1.70;;;7.00;99.90;;;;;;5119298;28;20189;-58
2021/12/29 07:36:11;;;;;;;2.73;1.30;;;7.00;99.90;;;;;;5098475;28;20193;-56
2021/12/29 07:38:38;;;;;;;3.93;1.40;;;7.00;99.90;;;;;;5099921;28;20641;-57
2021/12/29 07:41:04;;;;;;;2.20;1.20;;;7.00;99.90;;;;;;5100267;28;20202;-60
2021/12/29 07:43:29;;;;;;;3.87;1.30;;;7.00;99.90;;;;;;5107473;28;20205;-56
2021/12/29 07:45:55;;;;;;;3.17;1.43;;;7.00;99.90;;;;;;5104095;28;20166;-59
2021/12/29 07:48:27;;;;;;;3.30;1.53;;;7.10;99.90;;;;;;5105203;28;20189;-59
2021/12/29 07:50:53;;;;;;;4.27;1.50;;;7.10;99.90;;;;;;5121836;28;20250;-59
2021/12/29 07:53:19;;;;;;;4.20;1.40;;;7.20;99.90;;;;;;5103463;28;20615;-54
2021/12/29 07:55:44;;;;;;;2.67;1.50;;;7.50;99.90;;;;;;5104438;28;20193;-57
2021/12/29 07:58:10;;;;;;;3.50;1.20;;;7.30;99.90;;;;;;5106530;28;20178;-54
2021/12/29 08:00:36;;;;;;;3.53;1.73;;;7.30;99.90;;;;;;5104099;28;20204;-54
2021/12/29 08:03:01;;;;;;;2.30;1.50;;;7.20;99.90;;;;;;5104029;28;20201;-55
2021/12/29 08:05:27;;;;;;;3.73;1.10;;;7.20;99.90;;;;;;5096633;28;20177;-58
2021/12/29 08:07:52;;;;;;;3.80;1.23;;;7.10;99.90;;;;;;5109585;28;20212;-59
2021/12/29 08:10:18;;;;;;;4.53;1.37;;;7.20;99.90;;;;;;5112993;28;20196;-54
2021/12/29 08:12:44;;;;;;;3.63;1.37;;;7.20;99.90;;;;;;5123015;28;20258;-58
2021/12/29 08:15:11;;;;;;;4.10;1.10;;;7.20;99.90;;;;;;5121862;28;20204;-57
2021/12/29 08:17:37;;;;;;;2.87;1.47;;;7.30;99.90;;;;;;5122378;28;20168;-54
2021/12/29 08:20:06;;;;;;;2.47;1.27;;;7.30;99.90;;;;;;5123549;28;20169;-54
2021/12/29 08:22:32;;;;;;;5.53;1.30;;;7.20;99.90;;;;;;5124312;28;20177;-52
2021/12/29 08:24:57;;;;;;;2.83;1.30;;;7.30;99.90;;;;;;5104021;28;20187;-58
2021/12/29 08:27:23;;;;;;;3.03;1.37;;;7.20;99.90;;;;;;5094485;28;20180;-56
2021/12/29 08:29:49;;;;;;;2.00;1.33;;;7.20;99.90;;;;;;5113478;28;20184;-54
2021/12/29 08:32:14;;;;;;;2.10;1.20;;;7.20;99.90;;;;;;5107056;28;20209;-53
2021/12/29 08:34:40;;;;;;;2.03;1.33;;;7.20;99.90;;;;;;5121766;28;20201;-56
2021/12/29 08:37:06;;;;;;;2.53;1.30;;;7.20;99.90;;;;;;5118706;28;20237;-55
2021/12/29 08:39:32;;;;;;;3.73;1.40;;;7.20;99.90;;;;;;5120761;28;20166;-56
2021/12/29 08:41:57;;;;;;;2.70;1.10;;;7.10;99.90;;;;;;5112176;28;20211;-57
2021/12/29 08:44:23;;;;;;;3.50;1.57;;;7.20;99.90;;;;;;5094134;28;20173;-55
2021/12/29 08:46:49;;;;;;;2.87;1.13;;;7.20;99.90;;;;;;5112214;28;20181;-54
2021/12/29 08:49:15;;;;;;;1.77;1.00;;;7.20;99.90;;;;;;5123788;28;20280;-52
2021/12/29 08:51:41;;;;;;;2.77;1.30;;;7.20;99.90;;;;;;5109830;28;20229;-55
2021/12/29 08:54:08;;;;;;;2.20;1.20;;;7.20;99.90;;;;;;5111708;28;20169;-57
2021/12/29 08:56:34;;;;;;;2.00;0.80;;;9.00;99.90;;;;;;5114316;28;20201;-56
2021/12/29 08:59:00;;;;;;;1.40;0.80;;;7.30;99.90;;;;;;5116917;28;20427;-55
2021/12/29 09:01:27;;;;;;;1.80;1.00;;;7.30;99.90;;;;;;5120333;28;20190;-54
2021/12/29 09:03:53;;;;;;;2.30;1.20;;;9.20;99.90;;;;;;5117288;28;20173;-59
2021/12/29 09:06:19;;;;;;;3.60;1.40;;;7.40;99.90;;;;;;5101982;28;20184;-55
2021/12/29 09:08:46;;;;;;;2.00;0.90;;;9.30;99.90;;;;;;5124061;28;20241;-56
2021/12/29 09:11:13;;;;;;;1.27;0.93;;;8.10;99.90;;;;;;5132973;28;20287;-55
2021/12/29 09:13:39;;;;;;;2.20;1.20;;;7.40;99.90;;;;;;5130810;28;20180;-52
2021/12/29 09:16:05;;;;;;;2.63;1.03;;;7.50;99.90;;;;;;5131179;28;20220;-54
2021/12/29 09:18:33;;;;;;;1.70;0.93;;;7.50;99.90;;;;;;5130912;28;20180;-48
2021/12/29 09:21:06;;;;;;;2.40;1.30;;;8.80;99.90;;;;;;5132096;28;20193;-56
2021/12/29 09:23:33;;;;;;;1.23;0.97;;;7.40;99.90;;;;;;5132644;28;20165;-55
2021/12/29 09:25:59;;;;;;;2.03;1.07;;;8.50;99.90;;;;;;5130868;28;20170;-55
2021/12/29 09:28:25;;;;;;;2.43;1.10;;;9.20;99.90;;;;;;5131171;28;20646;-53
2021/12/29 09:30:51;;;;;;;2.50;1.13;;;8.30;99.90;;;;;;5132162;28;20197;-56
2021/12/29 09:33:19;;;;;;;2.00;1.00;;;9.20;99.90;;;;;;5124048;28;20204;-56
2021/12/29 09:35:47;;;;;;;2.13;0.90;;;8.40;99.90;;;;;;5112065;28;20212;-56
2021/12/29 09:38:14;;;;;;;1.00;0.80;;;8.00;99.90;;;;;;5111416;28;20173;-56
2021/12/29 09:40:40;;;;;;;1.20;1.00;;;9.90;99.90;;;;;;5112716;28;20215;-53
2021/12/29 09:43:07;;;;;;;1.60;0.93;;;9.70;99.90;;;;;;5113169;28;20189;-51
2021/12/29 09:45:33;;;;;;;3.60;1.10;;;5.80;99.90;;;;;;5112069;28;20198;-58
2021/12/29 09:47:59;;;;;;;2.00;1.23;;;7.40;99.90;;;;;;5112174;28;20236;-56
2021/12/29 09:50:25;;;;;;;1.80;0.93;;;9.00;99.90;;;;;;5113051;28;20225;-55
2021/12/29 09:52:51;;;;;;;2.20;1.10;;;7.60;99.90;;;;;;5111905;28;20276;-54
2021/12/29 09:55:20;;;;;;;2.43;1.10;;;7.40;99.90;;;;;;5111835;28;20278;-53
2021/12/29 09:57:48;;;;;;;1.00;0.90;;;9.50;99.90;;;;;;5112366;28;20170;-53
2021/12/29 10:00:27;;;;;;;2.00;0.90;;;8.10;99.90;;;;;;5112609;28;20189;-53
2021/12/29 10:02:55;;;;;;;0.93;0.73;;;7.50;99.90;;;;;;5112596;28;20154;-52
2021/12/29 10:05:24;;;;;;;1.17;0.90;;;7.50;99.90;;;;;;5111547;28;20180;-57
2021/12/29 10:08:19;;;;;;;1.77;0.90;;;7.40;99.90;;;;;;5111166;28;20266;-53
2021/12/29 10:10:51;;;;;;;1.60;1.00;;;7.50;99.90;;;;;;5111611;28;20197;-57
2021/12/29 10:13:17;;;;;;;2.63;1.40;;;7.50;99.90;;;;;;5110864;28;20184;-54
2021/12/29 10:15:51;;;;;;;3.07;1.33;;;7.50;99.90;;;;;;5112037;28;20197;-57
2021/12/29 10:18:21;;;;;;;2.17;1.40;;;7.50;99.90;;;;;;5114017;28;20237;-53
2021/12/29 10:20:51;;;;;;;1.60;1.50;;;7.50;99.90;;;;;;5113231;28;20197;-58
2021/12/29 10:23:22;;;;;;;3.00;1.70;;;7.60;99.90;;;;;;5114539;28;20299;-56
2021/12/29 10:25:48;;;;;;;2.50;1.90;;;7.60;99.90;;;;;;5114304;28;20170;-57
2021/12/29 10:28:22;;;;;;;1.60;1.50;;;7.60;99.90;;;;;;5114324;28;20172;-57
2021/12/29 10:31:03;;;;;;;2.10;1.20;;;7.60;99.90;;;;;;5112524;28;20256;-54
2021/12/29 10:33:35;;;;;;;2.50;1.30;;;7.60;99.90;;;;;;5111585;28;20201;-52
2021/12/29 10:36:36;;;;;;;2.23;1.17;;;7.60;99.90;;;;;;5111070;28;20201;-59
2021/12/29 10:39:07;;;;;;;1.77;1.00;;;7.50;99.90;;;;;;5112150;28;20166;-55
2021/12/29 10:41:47;;;;;;;0.87;0.87;;;7.50;99.90;;;;;;5111133;28;20240;-54
2021/12/29 10:44:13;;;;;;;2.30;1.10;;;7.60;99.90;;;;;;5110494;28;20200;-56
2021/12/29 10:46:39;;;;;;;1.30;1.20;;;7.60;99.90;;;;;;5110757;28;20176;-54
2021/12/29 10:49:08;;;;;;;1.40;1.07;;;7.60;99.90;;;;;;5111254;28;20227;-56
2021/12/29 10:51:36;;;;;;;0.80;0.80;;;7.60;99.90;;;;;;5110219;28;20190;-56
2021/12/29 10:54:10;;;;;;;3.63;1.03;;;7.70;99.90;;;;;;5112543;28;20212;-54
2021/12/29 10:56:38;;;;;;;0.87;0.80;;;7.70;99.90;;;;;;5112935;28;20190;-58
2021/12/29 10:59:18;;;;;;;1.47;0.87;;;7.70;99.90;;;;;;5113429;28;20193;-56
2021/12/29 11:01:45;;;;;;;0.83;0.80;;;7.70;99.90;;;;;;5113594;28;20177;-54
2021/12/29 11:04:14;;;;;;;1.80;1.10;;;7.80;99.90;;;;;;5110927;28;20233;-57
2021/12/29 11:06:43;;;;;;;2.33;1.20;;;7.80;99.90;;;;;;5113295;28;20180;-59
2021/12/29 11:09:10;;;;;;;2.53;1.00;;;7.50;99.90;;;;;;5111322;28;20178;-58
2021/12/29 11:11:39;;;;;;;1.03;0.93;;;7.70;99.90;;;;;;5110881;28;20186;-56
2021/12/29 11:14:33;;;;;;;1.63;0.90;;;7.70;99.90;;;;;;5110267;28;20169;-54
2021/12/29 11:17:11;;;;;;;1.20;0.73;;;7.70;99.90;;;;;;5112048;28;20298;-55
2021/12/29 11:19:39;;;;;;;1.40;1.00;;;7.90;99.90;;;;;;5111140;28;20214;-57
2021/12/29 11:22:11;;;;;;;1.73;0.90;;;9.10;99.90;;;;;;5111704;28;20221;-60
2021/12/29 11:24:38;;;;;;;1.80;1.20;;;8.00;99.90;;;;;;5110440;28;20166;-60
2021/12/29 11:27:15;;;;;;;1.33;1.03;;;7.90;99.90;;;;;;5110756;28;20171;-57
2021/12/29 11:29:56;;;;;;;2.17;1.20;;;8.00;99.90;;;;;;5110794;28;20170;-58
2021/12/29 11:32:32;;;;;;;2.10;1.17;;;7.90;99.90;;;;;;5110211;28;20174;-54
2021/12/29 11:35:01;;;;;;;1.67;1.23;;;8.00;99.90;;;;;;5107448;28;20220;-52
2021/12/29 11:37:27;;;;;;;2.67;1.60;;;9.40;99.90;;;;;;5107815;28;20545;-58
2021/12/29 11:39:53;;;;;;;1.40;1.07;;;8.10;99.90;;;;;;5109805;28;20169;-57
2021/12/29 11:42:18;;;;;;;2.27;1.30;;;10.00;99.90;;;;;;5106508;28;20185;-55
2021/12/29 11:44:44;;;;;;;2.03;1.30;;;8.10;99.90;;;;;;5108153;28;20182;-56
2021/12/29 11:47:11;;;;;;;1.37;1.17;;;8.00;99.90;;;;;;5108430;28;20534;-60
2021/12/29 11:49:37;;;;;;;0.90;0.90;;;8.00;99.90;;;;;;5127164;28;20165;-59
2021/12/29 11:52:09;;;;;;;1.10;1.00;;;8.00;99.90;;;;;;5107887;28;20190;-58
2021/12/29 11:54:59;;;;;;;2.30;1.20;;;10.00;99.90;;;;;;5108634;28;20208;-59
2021/12/29 11:57:27;;;;;;;1.43;1.00;;;8.00;99.90;;;;;;5108927;28;20217;-59
2021/12/29 12:00:05;;;;;;;1.60;0.90;;;8.00;99.90;;;;;;5109582;28;20176;-60
2021/12/29 12:02:30;;;;;;;0.80;0.80;;;8.70;99.90;;;;;;5108567;28;20255;-60
2021/12/29 12:05:17;;;;;;;3.77;1.33;;;8.70;99.90;;;;;;5107100;28;20177;-61
2021/12/29 12:07:43;;;;;;;1.17;1.00;;;7.80;99.90;;;;;;5108872;28;20247;-58
2021/12/29 12:10:13;;;;;;;1.30;1.20;;;7.80;99.90;;;;;;5108031;28;20181;-60
2021/12/29 12:12:45;;;;;;;1.43;1.07;;;7.90;99.90;;;;;;5110422;28;20180;-59
2021/12/29 12:15:12;;;;;;;2.73;1.20;;;7.90;99.90;;;;;;5107956;28;20188;-58
2021/12/29 12:17:38;;;;;;;1.70;1.40;;;7.90;99.90;;;;;;5108807;28;20170;-58
2021/12/29 12:20:17;;;;;;;4.97;1.90;;;8.40;99.90;;;;;;5108677;28;20157;-60
2021/12/29 12:22:51;;;;;;;2.77;1.83;;;8.00;99.90;;;;;;5110609;28;20149;-57
2021/12/29 12:25:27;;;;;;;3.40;2.63;;;8.10;99.90;;;;;;5108379;28;20162;-59
2021/12/29 12:28:00;;;;;;;3.47;1.63;;;8.20;99.90;;;;;;5110346;28;20161;-59
2021/12/29 12:30:49;;;;;;;2.67;1.43;;;8.20;99.90;;;;;;5109549;28;20219;-60
2021/12/29 12:33:18;;;;;;;2.30;0.97;;;9.10;99.90;;;;;;5110416;28;20221;-56
2021/12/29 12:35:50;;;;;;;1.30;1.20;;;8.40;99.90;;;;;;5107742;28;20215;-55
2021/12/29 12:38:20;;;;;;;2.27;0.90;;;8.50;99.90;;;;;;5110268;28;20181;-60
2021/12/29 12:40:58;;;;;;;2.07;0.80;;;8.20;99.90;;;;;;5109623;28;20189;-60
2021/12/29 12:43:23;;;;;;;0.70;0.70;;;8.60;99.90;;;;;;5109713;28;20173;-59
2021/12/29 12:45:50;;;;;;;1.87;0.87;;;8.60;99.90;;;;;;5108513;28;20181;-61
2021/12/29 12:48:31;;;;;;;1.73;0.80;;;8.50;99.90;;;;;;5109474;28;20189;-60
2021/12/29 12:51:01;;;;;;;1.40;0.70;;;8.50;99.90;;;;;;5109572;28;20190;-59
2021/12/29 12:53:36;;;;;;;0.77;0.63;;;8.50;99.90;;;;;;5109146;28;20169;-59
2021/12/29 12:56:05;;;;;;;0.73;0.73;;;8.60;99.90;;;;;;5108496;28;20226;-60
2021/12/29 12:58:37;;;;;;;1.23;1.00;;;8.70;99.90;;;;;;5107947;28;20188;-60
2021/12/29 13:01:08;;;;;;;1.23;0.83;;;8.70;99.90;;;;;;5108359;28;20197;-60
2021/12/29 13:03:34;;;;;;;3.33;1.03;;;8.90;99.90;;;;;;5107815;28;20170;-61
2021/12/29 13:06:02;;;;;;;1.90;1.00;;;9.00;99.90;;;;;;5108074;28;20226;-59
2021/12/29 13:08:31;;;;;;;1.30;0.90;;;9.20;99.90;;;;;;5106412;28;20192;-57
2021/12/29 13:10:58;;;;;;;1.17;0.87;;;9.10;99.90;;;;;;5106544;28;20194;-58